Time;durP1;ratioP1;P1;durP2;ratioP2;P2;SDS_P1;SDS_P2;PMS_P1;PMS_P2;Temp;Humidity;BMP_temperature;BMP_pressure;BME280_temperature;BME280_humidity;BME280_pressure;Samples;Min_cycle;Max_cycle;Signal;HPM_P1;HPM_P2
2023/01/29 00:01:21;;;;;;;41.83;17.20;;;;;;;;;;4917313;29;20050;-67
2023/01/29 00:03:50;;;;;;;26.67;15.80;;;;;;;;;;4917325;29;20474;-67
2023/01/29 00:06:16;;;;;;;26.27;15.00;;;;;;;;;;4917142;29;20449;-66
2023/01/29 00:08:42;;;;;;;28.30;16.73;;;;;;;;;;4917245;29;20087;-67
2023/01/29 00:11:08;;;;;;;25.70;14.75;;;;;;;;;;4917250;29;20039;-67
2023/01/29 00:13:35;;;;;;;26.30;15.27;;;;;;;;;;4917460;29;20366;-67
2023/01/29 00:16:01;;;;;;;27.75;15.25;;;;;;;;;;4917347;29;20490;-67
2023/01/29 00:18:28;;;;;;;25.30;14.30;;;;;;;;;;4916879;29;20095;-67
2023/01/29 00:20:55;;;;;;;22.17;13.45;;;;;;;;;;4917098;29;20020;-66
2023/01/29 00:23:21;;;;;;;31.60;14.43;;;;;;;;;;4917086;29;20398;-66
2023/01/29 00:25:47;;;;;;;25.83;12.70;;;;;;;;;;4917263;29;20024;-66
2023/01/29 00:28:14;;;;;;;23.98;12.93;;;;;;;;;;4917066;29;20027;-66
2023/01/29 00:30:40;;;;;;;25.73;13.85;;;;;;;;;;4917229;29;20115;-66
2023/01/29 00:33:07;;;;;;;23.77;14.02;;;;;;;;;;4916739;29;20451;-66
2023/01/29 00:35:33;;;;;;;26.65;16.15;;;;;;;;;;4916791;29;20059;-66
2023/01/29 00:37:59;;;;;;;24.13;15.40;;;;;;;;;;4916862;29;20028;-66
2023/01/29 00:40:25;;;;;;;26.45;15.52;;;;;;;;;;4916861;29;20047;-67
2023/01/29 00:45:38;;;;;;;27.98;15.88;;;;;;;;;;4916315;29;20024;-66
2023/01/29 00:48:05;;;;;;;31.30;16.35;;;;;;;;;;4916817;29;20020;-66
2023/01/29 00:50:31;;;;;;;27.27;15.50;;;;;;;;;;4899516;29;20406;-66
2023/01/29 00:52:57;;;;;;;25.75;13.88;;;;;;;;;;4916816;29;20028;-66
2023/01/29 00:55:24;;;;;;;27.55;14.57;;;;;;;;;;4916413;29;20032;-66
2023/01/29 00:57:50;;;;;;;27.15;13.50;;;;;;;;;;4877880;29;20053;-66
2023/01/29 01:00:18;;;;;;;27.55;14.90;;;;;;;;;;4878815;29;20052;-66
2023/01/29 01:05:42;;;;;;;31.60;15.93;;;;;;;;;;4803463;29;20073;-66
2023/01/29 01:11:04;;;;;;;30.70;16.05;;;;;;;;;;4788258;29;20035;-66
2023/01/29 01:13:34;;;;;;;36.92;17.13;;;;;;;;;;4803340;29;20062;-66
2023/01/29 01:16:00;;;;;;;30.00;15.73;;;;;;;;;;4787442;29;20035;-66
2023/01/29 01:18:31;;;;;;;26.98;15.23;;;;;;;;;;4803001;29;20034;-66
2023/01/29 01:20:58;;;;;;;27.55;14.02;;;;;;;;;;4802456;29;20186;-66
2023/01/29 01:23:24;;;;;;;23.30;13.63;;;;;;;;;;4803122;29;20107;-66
2023/01/29 01:25:50;;;;;;;21.38;13.05;;;;;;;;;;4803412;29;20049;-66
2023/01/29 01:28:16;;;;;;;27.27;14.32;;;;;;;;;;4803055;29;20459;-66
2023/01/29 01:30:43;;;;;;;28.83;15.73;;;;;;;;;;4803071;29;20125;-66
2023/01/29 01:33:09;;;;;;;31.88;17.15;;;;;;;;;;4803351;29;20136;-66
2023/01/29 01:35:36;;;;;;;32.35;17.75;;;;;;;;;;4802677;29;20046;-66
2023/01/29 01:38:02;;;;;;;24.38;15.45;;;;;;;;;;4803226;29;20039;-66
2023/01/29 01:40:28;;;;;;;27.42;16.10;;;;;;;;;;4811794;29;20048;-66
2023/01/29 01:42:55;;;;;;;29.63;16.70;;;;;;;;;;4870840;29;20029;-66
2023/01/29 01:45:25;;;;;;;28.02;15.45;;;;;;;;;;4878092;29;20391;-66
2023/01/29 01:47:56;;;;;;;27.50;15.32;;;;;;;;;;4878525;29;20021;-66
2023/01/29 01:50:40;;;;;;;28.58;16.38;;;;;;;;;;4876904;29;20032;-66
2023/01/29 01:53:08;;;;;;;30.35;17.65;;;;;;;;;;4878497;29;20116;-66
2023/01/29 01:55:36;;;;;;;41.65;20.00;;;;;;;;;;4880083;29;20040;-66
2023/01/29 01:58:09;;;;;;;41.30;21.55;;;;;;;;;;4898701;29;20486;-66
2023/01/29 02:00:36;;;;;;;61.47;29.45;;;;;;;;;;4898823;29;20453;-66
2023/01/29 02:11:24;;;;;;;36.13;20.60;;;;;;;;;;4898800;29;20492;-66
2023/01/29 02:13:52;;;;;;;29.52;17.33;;;;;;;;;;4915254;29;20028;-66
2023/01/29 02:16:24;;;;;;;29.85;17.52;;;;;;;;;;4915613;29;20036;-66
2023/01/29 02:18:50;;;;;;;31.13;17.63;;;;;;;;;;4915866;29;20039;-66
2023/01/29 02:21:23;;;;;;;32.65;16.85;;;;;;;;;;4915804;29;20104;-66
2023/01/29 02:23:49;;;;;;;;;;;;;;;;;;4898913;29;20054;-66
2023/01/29 02:26:36;;;;;;;32.03;16.98;;;;;;;;;;4915803;29;20357;-66
2023/01/29 02:29:26;;;;;;;34.13;18.92;;;;;;;;;;4898432;29;20545;-66
2023/01/29 02:31:52;;;;;;;31.25;17.17;;;;;;;;;;4915604;29;20043;-66
2023/01/29 02:34:18;;;;;;;36.63;19.10;;;;;;;;;;4898496;29;20498;-66
2023/01/29 02:36:51;;;;;;;39.45;18.70;;;;;;;;;;4898486;29;20064;-66
2023/01/29 02:39:28;;;;;;;38.30;19.13;;;;;;;;;;4898486;29;20068;-66
2023/01/29 02:41:58;;;;;;;30.40;17.42;;;;;;;;;;4898181;29;20024;-66
2023/01/29 02:44:36;;;;;;;33.72;17.35;;;;;;;;;;4915445;29;20093;-66
2023/01/29 02:47:03;;;;;;;31.25;16.73;;;;;;;;;;4898470;29;20402;-66
2023/01/29 02:49:36;;;;;;;31.92;15.95;;;;;;;;;;4901329;29;20494;-66
2023/01/29 02:52:04;;;;;;;33.15;18.77;;;;;;;;;;4918474;29;20119;-66
2023/01/29 02:55:01;;;;;;;36.80;19.65;;;;;;;;;;4918322;29;20068;-66
2023/01/29 02:57:37;;;;;;;32.05;18.48;;;;;;;;;;4822946;29;20050;-66
2023/01/29 03:00:09;;;;;;;29.23;17.30;;;;;;;;;;4823799;29;20038;-66
2023/01/29 03:02:41;;;;;;;30.88;16.42;;;;;;;;;;4808390;29;20042;-66
2023/01/29 03:05:11;;;;;;;35.17;18.77;;;;;;;;;;4823786;29;20038;-66
2023/01/29 03:07:42;;;;;;;35.00;17.67;;;;;;;;;;4823283;29;20047;-66
2023/01/29 03:10:11;;;;;;;29.23;16.30;;;;;;;;;;4808362;29;20134;-66
2023/01/29 03:12:38;;;;;;;31.00;17.17;;;;;;;;;;4807943;29;20569;-66
2023/01/29 03:15:10;;;;;;;33.85;18.35;;;;;;;;;;4808167;29;20480;-66
2023/01/29 03:17:44;;;;;;;28.35;16.98;;;;;;;;;;4807837;29;20045;-66
2023/01/29 03:20:12;;;;;;;;;;;;;;;;;;4808605;29;20042;-66
2023/01/29 03:22:39;;;;;;;25.60;15.30;;;;;;;;;;4808112;29;19992;-66
2023/01/29 03:33:54;;;;;;;29.55;17.15;;;;;;;;;;4866202;29;20048;-66
2023/01/29 03:36:36;;;;;;;27.67;14.80;;;;;;;;;;4900913;29;20136;-66
2023/01/29 03:39:07;;;;;;;27.27;15.48;;;;;;;;;;4900868;29;20044;-66
2023/01/29 03:41:45;;;;;;;29.85;16.48;;;;;;;;;;4900391;29;20478;-66
2023/01/29 03:44:26;;;;;;;25.33;14.70;;;;;;;;;;4900816;29;20036;-66
2023/01/29 03:46:55;;;;;;;32.13;16.42;;;;;;;;;;4900836;29;20520;-66
2023/01/29 03:49:34;;;;;;;30.85;16.80;;;;;;;;;;4900939;29;20036;-66
2023/01/29 03:52:04;;;;;;;27.80;15.55;;;;;;;;;;4900922;29;20502;-66
2023/01/29 03:54:34;;;;;;;30.65;16.65;;;;;;;;;;4900379;29;20036;-66
2023/01/29 03:57:10;;;;;;;34.80;17.73;;;;;;;;;;4900564;29;20106;-66
2023/01/29 03:59:45;;;;;;;27.00;15.93;;;;;;;;;;4900176;29;20470;-66
2023/01/29 04:02:32;;;;;;;30.10;16.00;;;;;;;;;;4917556;29;20064;-66
2023/01/29 04:05:05;;;;;;;26.48;15.85;;;;;;;;;;4900723;29;20115;-66
2023/01/29 04:07:35;;;;;;;29.00;16.20;;;;;;;;;;4900629;29;20040;-66
2023/01/29 04:10:06;;;;;;;27.67;15.25;;;;;;;;;;4900311;29;20036;-66
2023/01/29 04:12:40;;;;;;;28.60;15.80;;;;;;;;;;4900329;29;20058;-66
2023/01/29 04:15:08;;;;;;;30.15;17.13;;;;;;;;;;4917336;29;20088;-66
2023/01/29 04:17:37;;;;;;;27.85;17.77;;;;;;;;;;4917099;29;20028;-66
2023/01/29 04:20:15;;;;;;;28.90;16.10;;;;;;;;;;4900324;29;20112;-66
2023/01/29 04:22:44;;;;;;;25.70;15.50;;;;;;;;;;4900171;29;20307;-66
2023/01/29 04:25:16;;;;;;;25.33;15.45;;;;;;;;;;4900107;29;20029;-66
2023/01/29 04:27:51;;;;;;;29.92;15.85;;;;;;;;;;4900030;29;20047;-66
2023/01/29 04:30:23;;;;;;;28.50;15.82;;;;;;;;;;4900088;29;20039;-66
2023/01/29 04:33:07;;;;;;;26.63;16.50;;;;;;;;;;4899974;29;20115;-66
2023/01/29 04:35:34;;;;;;;;;;;;;;;;;;4900480;29;20126;-66
2023/01/29 04:38:19;;;;;;;29.20;16.02;;;;;;;;;;4880301;29;19911;-66
2023/01/29 04:40:50;;;;;;;30.05;16.52;;;;;;;;;;4897841;29;20028;-66
2023/01/29 04:43:28;;;;;;;30.98;16.95;;;;;;;;;;4911797;29;20031;-66
2023/01/29 04:46:05;;;;;;;29.83;16.33;;;;;;;;;;4916821;29;20122;-66
2023/01/29 04:48:46;;;;;;;29.42;16.23;;;;;;;;;;4916728;29;20513;-66
2023/01/29 04:51:21;;;;;;;31.05;18.52;;;;;;;;;;4916802;29;20036;-66
2023/01/29 04:53:59;;;;;;;31.25;17.05;;;;;;;;;;4916109;29;20035;-66
2023/01/29 04:56:44;;;;;;;30.90;16.98;;;;;;;;;;4916330;29;20052;-66
2023/01/29 04:59:17;;;;;;;30.15;16.45;;;;;;;;;;4916613;29;20059;-66
2023/01/29 05:01:43;;;;;;;31.42;16.15;;;;;;;;;;4904536;29;20064;-66
2023/01/29 05:04:12;;;;;;;36.70;18.80;;;;;;;;;;4913085;29;20024;-66
2023/01/29 05:06:38;;;;;;;28.15;15.73;;;;;;;;;;4915765;29;20435;-66
2023/01/29 05:09:05;;;;;;;29.15;15.35;;;;;;;;;;4911873;29;20050;-66
2023/01/29 05:11:32;;;;;;;33.47;17.38;;;;;;;;;;4915322;29;20024;-66
2023/01/29 05:13:59;;;;;;;29.25;17.38;;;;;;;;;;4901806;29;20039;-66
2023/01/29 05:16:30;;;;;;;35.03;16.73;;;;;;;;;;4915803;29;20028;-66
2023/01/29 05:18:56;;;;;;;29.10;16.90;;;;;;;;;;4916204;29;20070;-66
2023/01/29 05:21:23;;;;;;;31.67;16.23;;;;;;;;;;4915838;29;20371;-66
2023/01/29 05:24:08;;;;;;;31.33;16.20;;;;;;;;;;4916169;29;20021;-66
2023/01/29 05:29:19;;;;;;;26.65;14.52;;;;;;;;;;4897329;29;20036;-66
2023/01/29 05:31:46;;;;;;;31.50;16.98;;;;;;;;;;4897127;29;20024;-66
2023/01/29 05:34:12;;;;;;;30.90;15.52;;;;;;;;;;4899496;29;20484;-66
2023/01/29 05:36:38;;;;;;;32.28;16.20;;;;;;;;;;4915687;29;20028;-66
2023/01/29 05:39:04;;;;;;;25.48;14.55;;;;;;;;;;4915517;29;20063;-66
2023/01/29 05:41:30;;;;;;;29.25;16.60;;;;;;;;;;4900861;29;20033;-66
2023/01/29 05:43:56;;;;;;;38.03;18.08;;;;;;;;;;4909649;29;20051;-67
2023/01/29 05:46:22;;;;;;;22.80;14.63;;;;;;;;;;4905713;29;20135;-67
2023/01/29 05:48:49;;;;;;;27.60;16.02;;;;;;;;;;4906010;29;20092;-65
2023/01/29 05:51:15;;;;;;;27.48;15.85;;;;;;;;;;4909003;29;20029;-66
2023/01/29 05:53:41;;;;;;;29.25;15.45;;;;;;;;;;4911501;29;20486;-68
2023/01/29 05:56:07;;;;;;;27.25;15.32;;;;;;;;;;4909513;29;20044;-66
2023/01/29 05:58:33;;;;;;;32.20;14.77;;;;;;;;;;4902363;29;20137;-66
2023/01/29 06:01:10;;;;;;;26.05;14.07;;;;;;;;;;4911672;29;20095;-66
2023/01/29 06:03:36;;;;;;;26.00;14.70;;;;;;;;;;4911540;29;20039;-66
2023/01/29 06:06:02;;;;;;;30.02;14.68;;;;;;;;;;4899307;29;20073;-66
2023/01/29 06:08:28;;;;;;;24.27;14.55;;;;;;;;;;4909150;29;20032;-66
2023/01/29 06:10:54;;;;;;;25.00;14.63;;;;;;;;;;4901907;29;20028;-66
2023/01/29 06:13:20;;;;;;;27.33;15.35;;;;;;;;;;4908739;29;20108;-66
2023/01/29 06:15:46;;;;;;;29.13;15.93;;;;;;;;;;4908148;29;20028;-66
2023/01/29 06:18:13;;;;;;;28.58;15.20;;;;;;;;;;4907157;29;20028;-66
2023/01/29 06:20:39;;;;;;;28.58;15.35;;;;;;;;;;4906042;29;20012;-66
2023/01/29 06:23:05;;;;;;;24.00;14.57;;;;;;;;;;4910676;29;20434;-66
2023/01/29 06:25:31;;;;;;;25.98;13.90;;;;;;;;;;4910803;29;20056;-66
2023/01/29 06:27:57;;;;;;;27.35;14.57;;;;;;;;;;4911241;29;20502;-66
2023/01/29 06:30:23;;;;;;;22.30;13.45;;;;;;;;;;4908394;29;20021;-67
2023/01/29 06:32:49;;;;;;;28.60;13.38;;;;;;;;;;4914466;29;20099;-67
2023/01/29 06:35:15;;;;;;;22.77;13.35;;;;;;;;;;4916790;29;20063;-68
2023/01/29 06:37:41;;;;;;;23.88;13.95;;;;;;;;;;4909622;29;20032;-66
2023/01/29 06:40:08;;;;;;;26.38;14.63;;;;;;;;;;4913913;29;20510;-68
2023/01/29 06:42:37;;;;;;;22.77;12.85;;;;;;;;;;4912150;29;21829;-68
2023/01/29 06:45:04;;;;;;;21.73;12.57;;;;;;;;;;4916687;29;20040;-68
2023/01/29 06:47:30;;;;;;;21.42;13.65;;;;;;;;;;4914478;29;20466;-66
2023/01/29 06:49:56;;;;;;;25.88;12.70;;;;;;;;;;4908208;29;20533;-66
2023/01/29 06:52:24;;;;;;;20.77;12.75;;;;;;;;;;4914916;29;20024;-68
2023/01/29 06:54:50;;;;;;;20.83;12.75;;;;;;;;;;4907495;29;20063;-67
2023/01/29 06:57:16;;;;;;;29.25;14.43;;;;;;;;;;4908557;29;20045;-67
2023/01/29 06:59:42;;;;;;;19.50;11.35;;;;;;;;;;4911075;29;20481;-66
2023/01/29 07:02:08;;;;;;;23.08;12.73;;;;;;;;;;4907338;29;20111;-67
2023/01/29 07:04:35;;;;;;;19.25;11.43;;;;;;;;;;4913151;29;20104;-67
2023/01/29 07:07:01;;;;;;;22.55;12.25;;;;;;;;;;4908968;29;20024;-68
2023/01/29 07:09:27;;;;;;;24.30;14.23;;;;;;;;;;4909735;29;20028;-67
2023/01/29 07:11:53;;;;;;;21.42;13.18;;;;;;;;;;4907814;29;20415;-66
2023/01/29 07:14:19;;;;;;;24.45;13.82;;;;;;;;;;4909440;29;20051;-67
2023/01/29 07:16:46;;;;;;;24.98;14.32;;;;;;;;;;4916613;29;20039;-67
2023/01/29 07:19:12;;;;;;;24.55;14.00;;;;;;;;;;4912672;29;20099;-66
2023/01/29 07:21:38;;;;;;;23.52;13.82;;;;;;;;;;4910811;29;20028;-66
2023/01/29 07:24:04;;;;;;;24.08;14.70;;;;;;;;;;4903175;29;20568;-66
2023/01/29 07:26:30;;;;;;;22.58;13.43;;;;;;;;;;4912182;29;20036;-66
2023/01/29 07:28:56;;;;;;;23.85;13.10;;;;;;;;;;4906456;29;20024;-66
2023/01/29 07:31:22;;;;;;;24.65;14.00;;;;;;;;;;4906372;29;20032;-66
2023/01/29 07:33:48;;;;;;;33.20;17.08;;;;;;;;;;4907784;29;20118;-66
2023/01/29 07:36:14;;;;;;;25.80;15.77;;;;;;;;;;4907938;29;20047;-66
2023/01/29 07:38:41;;;;;;;37.67;16.85;;;;;;;;;;4909867;29;20385;-66
2023/01/29 07:41:07;;;;;;;31.65;19.25;;;;;;;;;;4903298;29;20494;-65
2023/01/29 07:43:33;;;;;;;31.88;17.70;;;;;;;;;;4905138;29;20020;-67
2023/01/29 07:46:03;;;;;;;24.60;14.75;;;;;;;;;;4902190;29;20394;-67
2023/01/29 07:48:29;;;;;;;28.30;13.82;;;;;;;;;;4908974;29;20044;-67
2023/01/29 07:50:56;;;;;;;25.30;13.95;;;;;;;;;;4905813;29;20036;-67
2023/01/29 07:53:22;;;;;;;25.75;13.95;;;;;;;;;;4910141;29;20036;-68
2023/01/29 07:55:48;;;;;;;22.42;13.23;;;;;;;;;;4911936;29;20036;-67
2023/01/29 07:58:14;;;;;;;30.45;15.40;;;;;;;;;;4914018;29;20031;-67
2023/01/29 08:00:40;;;;;;;21.27;12.63;;;;;;;;;;4904820;29;20036;-67
2023/01/29 08:03:10;;;;;;;28.45;18.02;;;;;;;;;;4911477;29;20492;-68
2023/01/29 08:05:36;;;;;;;24.13;14.23;;;;;;;;;;4906650;29;20028;-67
2023/01/29 08:08:02;;;;;;;27.33;15.80;;;;;;;;;;4906279;29;20032;-68
2023/01/29 08:10:29;;;;;;;21.30;12.70;;;;;;;;;;4907712;29;20036;-67
2023/01/29 08:12:56;;;;;;;22.13;13.88;;;;;;;;;;4916688;29;20119;-67
2023/01/29 08:15:22;;;;;;;24.80;15.13;;;;;;;;;;4913196;29;20541;-67
2023/01/29 08:17:49;;;;;;;27.77;15.68;;;;;;;;;;4909076;29;20494;-67
2023/01/29 08:20:15;;;;;;;21.50;12.82;;;;;;;;;;4914835;29;20390;-68
2023/01/29 08:22:41;;;;;;;21.77;12.95;;;;;;;;;;4919602;29;20481;-67
2023/01/29 08:25:07;;;;;;;18.35;12.02;;;;;;;;;;4917030;29;20048;-67
2023/01/29 08:27:33;;;;;;;21.67;12.13;;;;;;;;;;4911232;29;20031;-67
2023/01/29 08:29:59;;;;;;;18.25;11.30;;;;;;;;;;4908482;29;20032;-67
2023/01/29 08:32:26;;;;;;;20.85;11.52;;;;;;;;;;4915807;29;20020;-67
2023/01/29 08:34:52;;;;;;;20.25;11.77;;;;;;;;;;4912868;29;20122;-67
2023/01/29 08:37:18;;;;;;;22.92;12.25;;;;;;;;;;4913220;29;20047;-67
2023/01/29 08:39:44;;;;;;;23.23;12.07;;;;;;;;;;4902622;29;20035;-67
2023/01/29 08:42:10;;;;;;;21.35;12.70;;;;;;;;;;4914820;29;20118;-67
2023/01/29 08:44:36;;;;;;;22.25;12.02;;;;;;;;;;4915249;29;20028;-67
2023/01/29 08:47:02;;;;;;;19.48;11.82;;;;;;;;;;4909255;29;20046;-67
2023/01/29 08:49:28;;;;;;;20.25;11.82;;;;;;;;;;4906230;29;20402;-68
2023/01/29 08:51:55;;;;;;;25.30;11.82;;;;;;;;;;4907633;29;20051;-70
2023/01/29 08:54:22;;;;;;;19.70;11.82;;;;;;;;;;4912200;29;20032;-67
2023/01/29 08:56:48;;;;;;;20.48;11.43;;;;;;;;;;4914028;29;20429;-67
2023/01/29 08:59:14;;;;;;;17.35;11.30;;;;;;;;;;4915030;29;20028;-66
2023/01/29 09:01:40;;;;;;;19.17;12.32;;;;;;;;;;4909607;29;20541;-67
2023/01/29 09:04:07;;;;;;;19.63;12.52;;;;;;;;;;4914387;29;20434;-67
2023/01/29 09:06:33;;;;;;;25.73;12.95;;;;;;;;;;4911182;29;20508;-67
2023/01/29 09:08:59;;;;;;;25.98;13.65;;;;;;;;;;4908715;29;20032;-67
2023/01/29 09:11:25;;;;;;;22.17;13.40;;;;;;;;;;4909950;29;20032;-68
2023/01/29 09:13:51;;;;;;;28.05;13.07;;;;;;;;;;4904758;29;20031;-68
2023/01/29 09:16:17;;;;;;;24.52;13.90;;;;;;;;;;4914896;29;20020;-67
2023/01/29 09:18:44;;;;;;;21.98;13.55;;;;;;;;;;4908359;29;20028;-67
2023/01/29 09:21:10;;;;;;;23.17;12.98;;;;;;;;;;4913704;29;20666;-67
2023/01/29 09:23:37;;;;;;;26.27;13.80;;;;;;;;;;4916926;29;20703;-68
2023/01/29 09:26:03;;;;;;;25.08;13.65;;;;;;;;;;4893543;29;20486;-68
2023/01/29 09:28:29;;;;;;;21.13;13.20;;;;;;;;;;4911857;29;20020;-68
2023/01/29 09:30:56;;;;;;;20.83;12.65;;;;;;;;;;4907903;29;21489;-67
2023/01/29 09:33:23;;;;;;;23.30;12.00;;;;;;;;;;4909728;29;20024;-68
2023/01/29 09:35:49;;;;;;;20.63;12.93;;;;;;;;;;4912011;29;20078;-67
2023/01/29 09:38:15;;;;;;;25.77;13.23;;;;;;;;;;4903880;29;20415;-68
2023/01/29 09:40:51;;;;;;;28.15;12.70;;;;;;;;;;4905888;29;20032;-68
2023/01/29 09:43:23;;;;;;;27.17;13.95;;;;;;;;;;4912878;29;20119;-68
2023/01/29 09:45:59;;;;;;;21.77;12.73;;;;;;;;;;4912325;29;20032;-68
2023/01/29 09:48:28;;;;;;;25.58;13.55;;;;;;;;;;4909039;29;21749;-67
2023/01/29 09:50:55;;;;;;;26.83;12.93;;;;;;;;;;4913439;29;20486;-67
2023/01/29 09:53:31;;;;;;;28.70;13.27;;;;;;;;;;4911939;29;20039;-68
2023/01/29 09:56:05;;;;;;;22.15;13.32;;;;;;;;;;4912181;29;20051;-67
2023/01/29 09:58:33;;;;;;;22.35;13.27;;;;;;;;;;4916069;29;20043;-68
2023/01/29 10:00:59;;;;;;;22.63;12.43;;;;;;;;;;4921077;29;20032;-68
2023/01/29 10:03:34;;;;;;;23.75;14.38;;;;;;;;;;4915302;29;20030;-68
2023/01/29 10:06:22;;;;;;;26.23;13.48;;;;;;;;;;4914920;29;20028;-68
2023/01/29 10:09:07;;;;;;;21.25;12.70;;;;;;;;;;4907964;29;20036;-67
2023/01/29 10:11:33;;;;;;;23.15;13.80;;;;;;;;;;4903863;29;20028;-68
2023/01/29 10:14:16;;;;;;;21.02;12.27;;;;;;;;;;4908827;29;20021;-66
2023/01/29 10:16:42;;;;;;;;;;;;;;;;;;4905740;29;20133;-67
2023/01/29 10:19:23;;;;;;;20.20;11.93;;;;;;;;;;4891212;29;20072;-67
2023/01/29 10:22:08;;;;;;;23.90;13.23;;;;;;;;;;4902256;29;20038;-67
2023/01/29 10:24:50;;;;;;;22.65;13.05;;;;;;;;;;4904864;29;20108;-66
2023/01/29 10:27:17;;;;;;;30.70;15.02;;;;;;;;;;4907396;29;20024;-69
2023/01/29 10:29:44;;;;;;;26.73;15.13;;;;;;;;;;4906798;29;20111;-65
2023/01/29 10:32:20;;;;;;;22.30;13.82;;;;;;;;;;4906948;29;20028;-67
2023/01/29 10:34:46;;;;;;;22.65;13.35;;;;;;;;;;4904205;29;20115;-67
2023/01/29 10:37:18;;;;;;;27.25;15.57;;;;;;;;;;4907871;29;20044;-68
2023/01/29 10:39:44;;;;;;;25.23;13.45;;;;;;;;;;4907160;29;20033;-68
2023/01/29 10:42:13;;;;;;;23.70;13.07;;;;;;;;;;4906498;29;20069;-69
2023/01/29 10:44:42;;;;;;;23.20;12.98;;;;;;;;;;4910456;29;20024;-69
2023/01/29 10:47:28;;;;;;;20.98;12.60;;;;;;;;;;4907541;29;20063;-68
2023/01/29 10:50:00;;;;;;;24.15;13.18;;;;;;;;;;4904208;29;20129;-69
2023/01/29 10:52:29;;;;;;;26.73;13.77;;;;;;;;;;4904852;29;20039;-69
2023/01/29 10:54:58;;;;;;;34.08;17.10;;;;;;;;;;4906286;29;20032;-69
2023/01/29 10:57:27;;;;;;;30.15;14.30;;;;;;;;;;4904861;29;20108;-68
2023/01/29 11:00:11;;;;;;;30.83;16.08;;;;;;;;;;4904132;29;20055;-69
2023/01/29 11:02:44;;;;;;;16.83;10.68;;;;;;;;;;4903386;29;20076;-68
2023/01/29 11:05:19;;;;;;;17.25;10.32;;;;;;;;;;4902152;29;20036;-68
2023/01/29 11:07:45;;;;;;;14.32;9.70;;;;;;;;;;4904281;29;20091;-68
2023/01/29 11:10:14;;;;;;;19.00;10.32;;;;;;;;;;4899481;29;20135;-69
2023/01/29 11:12:42;;;;;;;14.00;9.10;;;;;;;;;;4904373;29;20421;-67
2023/01/29 11:15:11;;;;;;;18.02;9.68;;;;;;;;;;4901131;29;20024;-67
2023/01/29 11:17:37;;;;;;;15.63;9.95;;;;;;;;;;4903962;29;20035;-68
2023/01/29 11:20:05;;;;;;;17.42;10.07;;;;;;;;;;4903449;29;20032;-68
2023/01/29 11:22:32;;;;;;;15.73;9.45;;;;;;;;;;4904024;29;20040;-67
2023/01/29 11:25:08;;;;;;;17.70;9.48;;;;;;;;;;4904459;29;20016;-68
2023/01/29 11:27:39;;;;;;;19.50;9.95;;;;;;;;;;4904672;29;20376;-68
2023/01/29 11:30:05;;;;;;;17.15;9.77;;;;;;;;;;4903045;29;20135;-67
2023/01/29 11:32:33;;;;;;;15.88;9.75;;;;;;;;;;4904006;29;20031;-68
2023/01/29 11:34:59;;;;;;;17.60;10.10;;;;;;;;;;4900289;29;20033;-66
2023/01/29 11:37:33;;;;;;;16.80;9.73;;;;;;;;;;4901122;29;20379;-68
2023/01/29 11:39:59;;;;;;;19.48;9.98;;;;;;;;;;4911021;29;20048;-68
2023/01/29 11:42:30;;;;;;;20.67;10.15;;;;;;;;;;4906927;29;20032;-68
2023/01/29 11:44:56;;;;;;;21.70;10.55;;;;;;;;;;4906131;29;20039;-68
2023/01/29 11:47:25;;;;;;;18.65;10.25;;;;;;;;;;4906500;29;20045;-68
2023/01/29 11:49:59;;;;;;;19.42;10.43;;;;;;;;;;4908642;29;20498;-69
2023/01/29 11:52:33;;;;;;;17.92;11.18;;;;;;;;;;4902150;29;20055;-68
2023/01/29 11:55:03;;;;;;;17.13;9.98;;;;;;;;;;4905448;29;20035;-68
2023/01/29 11:57:31;;;;;;;17.95;9.90;;;;;;;;;;4900948;29;20414;-67
2023/01/29 12:00:03;;;;;;;18.95;10.60;;;;;;;;;;4900052;29;20048;-67
2023/01/29 12:02:38;;;;;;;20.42;10.25;;;;;;;;;;4902959;29;20032;-68
2023/01/29 12:05:06;;;;;;;18.17;10.25;;;;;;;;;;4900844;29;20028;-68
2023/01/29 12:07:32;;;;;;;14.63;8.93;;;;;;;;;;4899684;29;20301;-68
2023/01/29 12:09:59;;;;;;;16.52;8.77;;;;;;;;;;4901111;29;20037;-67
2023/01/29 12:12:33;;;;;;;16.95;8.90;;;;;;;;;;4902213;29;20490;-68
2023/01/29 12:15:20;;;;;;;17.00;9.32;;;;;;;;;;4901176;29;20029;-68
2023/01/29 12:17:50;;;;;;;14.82;8.85;;;;;;;;;;4901189;29;20036;-68
2023/01/29 12:20:22;;;;;;;13.40;8.38;;;;;;;;;;4903269;29;20031;-68
2023/01/29 12:23:03;;;;;;;13.63;8.30;;;;;;;;;;4903721;29;20032;-69
2023/01/29 12:25:32;;;;;;;12.60;8.63;;;;;;;;;;4902054;29;20510;-69
2023/01/29 12:28:24;;;;;;;15.23;8.27;;;;;;;;;;4903933;29;20035;-70
2023/01/29 12:31:04;;;;;;;16.47;8.73;;;;;;;;;;4903832;29;20062;-68
2023/01/29 12:33:39;;;;;;;17.38;9.65;;;;;;;;;;4907171;29;20044;-67
2023/01/29 12:36:11;;;;;;;16.90;10.65;;;;;;;;;;4906942;29;20032;-67
2023/01/29 12:38:37;;;;;;;17.45;8.38;;;;;;;;;;4910202;29;20440;-67
2023/01/29 12:41:22;;;;;;;15.10;7.70;;;;;;;;;;4902745;29;20031;-67
2023/01/29 12:43:50;;;;;;;14.75;8.45;;;;;;;;;;4899372;29;20119;-67
2023/01/29 12:46:24;;;;;;;14.85;8.70;;;;;;;;;;4900419;29;20092;-67
2023/01/29 12:48:53;;;;;;;13.57;7.78;;;;;;;;;;4899755;29;20080;-67
2023/01/29 12:51:22;;;;;;;14.23;8.20;;;;;;;;;;4899651;29;20530;-66
2023/01/29 12:53:57;;;;;;;13.13;7.68;;;;;;;;;;4899307;29;20113;-67
2023/01/29 12:56:28;;;;;;;14.10;7.75;;;;;;;;;;4899606;29;20113;-67
2023/01/29 12:58:55;;;;;;;17.85;8.48;;;;;;;;;;4900785;29;20029;-67
2023/01/29 13:01:41;;;;;;;14.13;8.02;;;;;;;;;;4899707;29;20186;-66
2023/01/29 13:04:16;;;;;;;15.38;7.38;;;;;;;;;;4901851;29;20113;-67
2023/01/29 13:06:49;;;;;;;13.35;8.10;;;;;;;;;;4899299;29;20036;-67
2023/01/29 13:09:15;;;;;;;;;;;;;;;;;;4900059;29;20025;-67
2023/01/29 13:12:00;;;;;;;15.85;8.45;;;;;;;;;;4901745;29;19966;-67
2023/01/29 13:14:46;;;;;;;16.00;8.00;;;;;;;;;;4902101;29;20048;-68
2023/01/29 13:17:15;;;;;;;13.82;7.95;;;;;;;;;;4904169;29;20036;-68
2023/01/29 13:19:44;;;;;;;15.63;7.63;;;;;;;;;;4903875;29;20036;-68
2023/01/29 13:22:22;;;;;;;13.68;8.40;;;;;;;;;;4893880;29;20099;-67
2023/01/29 13:24:49;;;;;;;12.15;7.20;;;;;;;;;;4885964;29;20028;-67
2023/01/29 13:27:20;;;;;;;14.80;7.60;;;;;;;;;;4908106;29;20028;-67
2023/01/29 13:29:48;;;;;;;14.30;7.63;;;;;;;;;;4900025;29;20112;-68
2023/01/29 13:32:19;;;;;;;17.15;8.40;;;;;;;;;;4891115;29;20016;-67
2023/01/29 13:34:47;;;;;;;14.43;7.80;;;;;;;;;;4904484;29;20032;-68
2023/01/29 13:37:27;;;;;;;14.90;7.65;;;;;;;;;;4906400;29;20088;-68
2023/01/29 13:39:54;;;;;;;17.83;8.10;;;;;;;;;;4908803;29;20772;-68
2023/01/29 13:42:21;;;;;;;13.85;7.43;;;;;;;;;;4902641;29;20031;-67
2023/01/29 13:44:53;;;;;;;15.05;7.07;;;;;;;;;;4903046;29;20463;-68
2023/01/29 13:47:30;;;;;;;13.77;7.65;;;;;;;;;;4896407;29;20115;-67
2023/01/29 13:49:59;;;;;;;12.57;7.60;;;;;;;;;;4901165;29;20087;-68
2023/01/29 13:52:32;;;;;;;12.10;7.55;;;;;;;;;;4906831;29;20400;-68
2023/01/29 13:55:00;;;;;;;16.25;9.55;;;;;;;;;;4903240;29;20082;-68
2023/01/29 13:57:47;;;;;;;16.45;8.07;;;;;;;;;;4874679;29;20049;-67
2023/01/29 14:00:13;;;;;;;14.23;8.30;;;;;;;;;;4872354;29;20064;-67
2023/01/29 14:02:39;;;;;;;19.75;9.60;;;;;;;;;;4869702;29;20060;-68
2023/01/29 14:05:24;;;;;;;14.23;9.40;;;;;;;;;;4869745;29;20033;-67
2023/01/29 14:07:51;;;;;;;14.75;9.18;;;;;;;;;;4860939;29;20097;-67
2023/01/29 14:10:18;;;;;;;18.45;9.35;;;;;;;;;;4868750;29;20037;-67
2023/01/29 14:12:45;;;;;;;15.77;8.95;;;;;;;;;;4866373;29;20521;-67
2023/01/29 14:15:17;;;;;;;20.52;9.18;;;;;;;;;;4863083;29;20082;-67
2023/01/29 14:17:54;;;;;;;17.48;9.63;;;;;;;;;;4870003;29;20495;-67
2023/01/29 14:20:24;;;;;;;14.38;8.63;;;;;;;;;;4871376;29;20049;-68
2023/01/29 14:22:56;;;;;;;20.67;10.38;;;;;;;;;;4864755;29;20387;-68
2023/01/29 14:25:27;;;;;;;15.73;8.90;;;;;;;;;;4864289;29;20089;-67
2023/01/29 14:27:54;;;;;;;12.23;7.97;;;;;;;;;;4866553;29;20443;-68
2023/01/29 14:30:22;;;;;;;15.32;8.10;;;;;;;;;;4873119;29;20033;-68
2023/01/29 14:32:50;;;;;;;14.18;8.18;;;;;;;;;;4868773;29;20029;-68
2023/01/29 14:35:16;;;;;;;14.85;8.20;;;;;;;;;;4874275;29;20048;-67
2023/01/29 14:37:45;;;;;;;14.25;8.57;;;;;;;;;;4873959;29;20093;-67
2023/01/29 14:40:11;;;;;;;15.10;8.35;;;;;;;;;;4869793;29;20036;-67
2023/01/29 14:42:38;;;;;;;15.68;8.52;;;;;;;;;;4868065;29;20037;-67
2023/01/29 14:45:23;;;;;;;15.07;8.57;;;;;;;;;;4873991;29;20021;-67
2023/01/29 14:47:49;;;;;;;14.93;8.48;;;;;;;;;;4877282;29;20043;-67
2023/01/29 14:50:18;;;;;;;20.67;8.65;;;;;;;;;;4870519;29;20041;-67
2023/01/29 14:52:45;;;;;;;17.30;8.10;;;;;;;;;;4879124;29;20088;-68
2023/01/29 14:55:22;;;;;;;19.05;8.85;;;;;;;;;;4875848;29;20491;-67
2023/01/29 14:57:48;;;;;;;18.52;9.15;;;;;;;;;;4909763;29;20100;-68
2023/01/29 15:00:26;;;;;;;19.58;9.52;;;;;;;;;;4910461;29;20056;-67
2023/01/29 15:02:55;;;;;;;19.13;10.57;;;;;;;;;;4909984;29;20063;-67
2023/01/29 15:05:24;;;;;;;15.02;8.30;;;;;;;;;;4911697;29;20075;-67